createdAt,value
2022-11-28T00:01:29.520Z,17.43
2022-11-28T00:03:58.912Z,17.00
2022-11-28T00:06:27.897Z,16.63
2022-11-28T00:08:58.510Z,18.15
2022-11-28T00:11:26.414Z,13.90
2022-11-28T00:13:55.220Z,17.10
2022-11-28T00:16:24.058Z,15.63
2022-11-28T00:18:55.961Z,15.55
2022-11-28T00:21:25.653Z,16.10
2022-11-28T00:23:53.747Z,16.27
2022-11-28T00:26:30.354Z,16.83
2022-11-28T09:48:38.716Z,14.57
2022-11-28T10:09:39.381Z,19.00
2022-11-28T10:12:21.023Z,17.57
2022-11-28T10:15:02.051Z,15.77
2022-11-28T10:17:40.516Z,15.20
2022-11-28T10:20:15.151Z,17.40
2022-11-28T10:22:47.438Z,14.97
2022-11-28T10:25:19.639Z,14.13
2022-11-28T10:27:49.153Z,15.00
2022-11-28T10:30:22.029Z,13.57
2022-11-28T10:33:01.628Z,12.18
2022-11-28T10:35:39.376Z,10.50
2022-11-28T10:38:12.858Z,13.30
2022-11-28T10:40:49.719Z,12.17
2022-11-28T10:43:31.128Z,12.10
2022-11-28T10:46:11.554Z,8.93
2022-11-28T10:48:46.684Z,12.73
2022-11-28T10:51:30.390Z,14.67
2022-11-28T10:54:18.020Z,14.48
2022-11-28T10:56:58.269Z,14.43
2022-11-28T10:59:37.712Z,14.90
2022-11-28T11:02:21.376Z,15.07
2022-11-28T11:04:49.402Z,11.60
2022-11-28T11:07:26.471Z,15.50
2022-11-28T11:09:59.725Z,13.37
2022-11-28T11:12:32.890Z,14.27
2022-11-28T11:15:15.436Z,14.20
2022-11-28T11:17:43.402Z,12.47
2022-11-28T11:20:39.005Z,12.97
2022-11-28T11:23:20.052Z,13.73
2022-11-28T11:25:53.520Z,15.00
2022-11-28T11:28:40.480Z,14.50
2022-11-28T11:31:19.546Z,13.77
2022-11-28T11:33:48.422Z,15.17
2022-11-28T11:36:27.051Z,12.82
2022-11-28T11:39:07.527Z,12.10
2022-11-28T11:41:35.853Z,12.43
2022-11-28T11:44:29.066Z,14.90
2022-11-28T11:47:00.701Z,12.50
2022-11-28T11:49:34.857Z,16.60
2022-11-28T11:52:05.739Z,11.80
2022-11-28T11:54:34.214Z,14.07
2022-11-28T11:57:31.258Z,9.90
2022-11-28T11:59:57.047Z,11.63
2022-11-28T12:02:33.316Z,16.63
2022-11-28T12:05:06.561Z,10.93
2022-11-28T12:07:43.512Z,9.40
2022-11-28T12:10:17.623Z,9.13
2022-11-28T12:12:45.678Z,11.30
2022-11-28T12:15:18.675Z,11.83
2022-11-28T12:18:03.668Z,10.53
2022-11-28T12:20:44.916Z,11.83
2022-11-28T12:23:30.410Z,11.32
2022-11-28T12:26:07.746Z,12.80
2022-11-28T12:28:48.721Z,12.10
2022-11-28T12:31:26.593Z,10.07
2022-11-28T12:34:07.227Z,13.37
2022-11-28T12:36:43.080Z,8.30
2022-11-28T12:39:18.903Z,9.33
2022-11-28T12:42:14.159Z,9.00
2022-11-28T12:44:54.324Z,9.03
2022-11-28T12:47:33.883Z,9.30
2022-11-28T12:50:10.591Z,10.77
2022-11-28T12:52:45.249Z,11.07
2022-11-28T12:55:23.185Z,10.40
2022-11-28T12:57:59.540Z,10.40
2022-11-28T13:00:30.007Z,8.10
2022-11-28T13:03:12.707Z,8.50
2022-11-28T13:05:52.302Z,9.40
2022-11-28T13:08:49.899Z,10.80
2022-11-28T13:11:34.551Z,12.00
2022-11-28T13:14:11.115Z,10.20
2022-11-28T13:16:45.797Z,9.70
2022-11-28T13:19:30.365Z,11.73
2022-11-28T13:22:09.068Z,9.23
2022-11-28T13:24:43.431Z,11.40
2022-11-28T13:27:22.045Z,11.33
2022-11-28T13:30:00.944Z,9.73
2022-11-28T13:32:37.802Z,11.00
2022-11-28T13:35:12.585Z,11.10
2022-11-28T13:40:42.436Z,13.23
2022-11-28T13:43:17.858Z,10.70
2022-11-28T13:45:47.527Z,14.87
2022-11-28T13:51:43.104Z,12.60
2022-11-28T13:54:51.870Z,14.23
2022-11-28T13:57:31.669Z,13.90
2022-11-28T14:00:22.844Z,14.88
2022-11-28T14:02:54.349Z,14.87
2022-11-28T14:05:34.961Z,15.37
2022-11-28T14:08:05.541Z,15.88
2022-11-28T14:10:59.089Z,14.40
2022-11-28T14:13:52.492Z,20.03
2022-11-28T14:16:32.096Z,10.00
2022-11-28T14:19:19.424Z,10.20
2022-11-28T14:21:57.973Z,13.47
2022-11-28T14:24:43.900Z,12.10
2022-11-28T14:27:20.863Z,13.57
2022-11-28T14:29:52.682Z,13.17
2022-11-28T14:32:31.108Z,15.07
2022-11-28T14:34:59.846Z,13.27
2022-11-28T14:37:59.002Z,12.43
2022-11-28T14:41:02.049Z,13.47
2022-11-28T14:43:31.405Z,13.07
2022-11-28T14:46:20.852Z,17.17
2022-11-28T14:49:23.490Z,17.80
2022-11-28T14:52:41.075Z,14.20
2022-11-28T14:55:22.671Z,10.90
2022-11-28T14:57:59.434Z,10.17
2022-11-28T15:00:29.600Z,11.50
2022-11-28T15:03:15.324Z,11.60
2022-11-28T15:05:47.595Z,18.80
2022-11-28T15:08:33.429Z,13.30
2022-11-28T15:11:21.379Z,12.73
2022-11-28T15:14:09.756Z,12.23
2022-11-28T15:16:45.242Z,14.50
2022-11-28T15:19:24.006Z,13.93
2022-11-28T15:21:54.420Z,13.70
2022-11-28T15:24:25.461Z,15.37
2022-11-28T15:26:57.335Z,10.27
2022-11-28T15:29:29.008Z,10.97
2022-11-28T15:31:58.643Z,11.47
2022-11-28T15:34:29.033Z,11.57
2022-11-28T15:36:59.815Z,15.07
2022-11-28T15:39:35.007Z,7.60
2022-11-28T15:42:05.896Z,8.27
2022-11-28T15:44:36.476Z,11.82
2022-11-28T15:47:05.056Z,10.23
2022-11-28T15:49:35.536Z,10.60
2022-11-28T15:52:05.796Z,13.00
2022-11-28T15:54:40.990Z,9.30
2022-11-28T15:57:19.716Z,7.40
2022-11-28T15:59:49.159Z,8.32
2022-11-28T16:02:23.564Z,10.00
2022-11-28T16:04:56.181Z,7.72
2022-11-28T16:07:24.360Z,10.77
2022-11-28T16:09:58.426Z,10.53
2022-11-28T16:12:27.972Z,11.40
2022-11-28T16:15:01.944Z,8.50
2022-11-28T16:17:33.175Z,8.87
2022-11-28T16:20:03.542Z,10.33
2022-11-28T16:22:36.462Z,9.60
2022-11-28T16:25:21.546Z,14.07
2022-11-28T16:27:53.290Z,9.80
2022-11-28T16:30:37.050Z,9.07
2022-11-28T16:33:36.961Z,10.60
2022-11-28T16:36:17.354Z,12.32
2022-11-28T16:38:47.205Z,9.30
2022-11-28T16:41:21.859Z,8.83
2022-11-28T16:43:53.620Z,9.40
2022-11-28T16:46:23.539Z,12.80
2022-11-28T16:48:57.218Z,11.60
2022-11-28T16:51:46.122Z,10.77
2022-11-28T16:54:31.900Z,9.20
2022-11-28T16:57:10.764Z,8.57
2022-11-28T16:59:39.058Z,10.47
2022-11-28T17:02:15.762Z,9.53
2022-11-28T17:04:46.052Z,11.00
2022-11-28T17:07:16.489Z,9.57
2022-11-28T17:09:46.800Z,10.20
2022-11-28T17:12:23.257Z,9.77
2022-11-28T17:14:51.655Z,11.53
2022-11-28T17:17:20.979Z,11.50
2022-11-28T17:19:51.251Z,8.60
2022-11-28T17:22:22.977Z,10.70
2022-11-28T17:24:52.583Z,12.30
2022-11-28T17:27:20.719Z,11.47
2022-11-28T17:29:48.822Z,12.23
2022-11-28T17:32:17.050Z,10.30
2022-11-28T17:34:46.406Z,14.23
2022-11-28T17:37:16.394Z,9.50
2022-11-28T17:40:04.502Z,11.17
2022-11-28T17:42:33.048Z,13.50
2022-11-28T17:45:01.283Z,16.70
2022-11-28T17:47:29.814Z,11.67
2022-11-28T17:49:57.731Z,19.13
2022-11-28T17:52:30.741Z,9.00
2022-11-28T17:55:06.815Z,9.43
2022-11-28T17:57:35.629Z,12.20
2022-11-28T18:00:06.613Z,10.27
2022-11-28T18:02:34.895Z,12.52
2022-11-28T18:05:02.997Z,11.43
2022-11-28T18:07:32.499Z,10.82
2022-11-28T18:10:00.505Z,13.93
2022-11-28T18:12:28.697Z,13.57
2022-11-28T18:14:56.678Z,10.77
2022-11-28T18:17:24.803Z,15.40
2022-11-28T18:19:57.271Z,25.53
2022-11-28T18:22:26.001Z,18.30
2022-11-28T18:24:55.245Z,16.98
2022-11-28T18:27:23.452Z,18.03
2022-11-28T18:29:51.417Z,17.37
2022-11-28T18:32:19.362Z,13.00
2022-11-28T18:34:48.546Z,13.93
2022-11-28T18:37:16.697Z,18.70
2022-11-28T18:39:44.857Z,27.73
2022-11-28T18:42:14.291Z,27.60
2022-11-28T18:44:42.463Z,19.80
2022-11-28T18:47:11.288Z,21.00
2022-11-28T18:49:39.511Z,14.33
2022-11-28T18:52:07.652Z,18.77
2022-11-28T18:54:38.589Z,19.53
2022-11-28T18:57:07.921Z,17.07
2022-11-28T18:59:37.434Z,13.63
2022-11-28T19:02:05.526Z,12.80
2022-11-28T19:04:33.786Z,17.87
2022-11-28T19:07:03.683Z,14.63
2022-11-28T19:09:31.802Z,17.07
2022-11-28T19:12:00.039Z,14.87
2022-11-28T19:14:28.208Z,11.27
2022-11-28T19:16:57.479Z,15.83
2022-11-28T19:19:25.640Z,14.67
2022-11-28T19:21:53.803Z,19.13
2022-11-28T19:24:21.666Z,17.90
2022-11-28T19:26:49.956Z,12.83
2022-11-28T19:29:17.994Z,17.17
2022-11-28T19:31:46.135Z,19.30
2022-11-28T19:34:17.155Z,15.17
2022-11-28T19:36:47.459Z,17.17
2022-11-28T19:39:17.915Z,16.37
2022-11-28T19:41:46.423Z,14.87
2022-11-28T19:44:15.657Z,17.23
2022-11-28T19:46:43.789Z,22.73
2022-11-28T19:49:19.907Z,15.87
2022-11-28T19:51:48.948Z,17.60
2022-11-28T19:54:19.857Z,13.80
2022-11-28T19:56:48.215Z,19.30
2022-11-28T19:59:16.697Z,15.60
2022-11-28T20:01:45.474Z,15.30
2022-11-28T20:04:13.642Z,16.70
2022-11-28T20:06:43.116Z,15.83
2022-11-28T20:09:13.658Z,12.97
2022-11-28T20:11:43.202Z,16.73
2022-11-28T20:14:13.569Z,16.50
2022-11-28T20:16:41.916Z,19.13
2022-11-28T20:19:10.861Z,17.70
2022-11-28T20:21:39.573Z,12.90
2022-11-28T20:24:09.314Z,15.07
2022-11-28T20:26:40.069Z,15.07
2022-11-28T20:29:09.288Z,13.97
2022-11-28T20:31:42.183Z,15.70
2022-11-28T20:34:10.144Z,18.27
2022-11-28T20:36:38.447Z,15.87
2022-11-28T20:39:09.677Z,16.10
2022-11-28T20:41:37.650Z,19.73
2022-11-28T20:44:06.131Z,15.30
2022-11-28T20:46:35.515Z,18.20
2022-11-28T20:49:07.063Z,20.37
2022-11-28T20:51:36.467Z,15.03
2022-11-28T20:54:06.098Z,16.02
2022-11-28T20:57:05.158Z,16.50
2022-11-28T20:59:27.429Z,17.73
2022-11-28T21:01:55.463Z,19.57
2022-11-28T21:04:23.639Z,18.63
2022-11-28T21:06:51.585Z,13.63
2022-11-28T21:09:20.787Z,18.77
2022-11-28T21:11:57.479Z,17.23
2022-11-28T21:14:26.427Z,17.87
2022-11-28T21:16:54.730Z,23.50
2022-11-28T21:19:22.725Z,17.90
2022-11-28T21:21:50.638Z,17.30
2022-11-28T21:24:18.896Z,17.20
2022-11-28T21:26:53.109Z,18.50
2022-11-28T21:29:24.858Z,16.30
2022-11-28T21:31:53.624Z,14.23
2022-11-28T21:34:22.394Z,16.90
2022-11-28T21:36:50.443Z,22.50
2022-11-28T21:39:22.603Z,19.88
2022-11-28T21:41:51.925Z,19.10
2022-11-28T21:44:20.030Z,15.50
2022-11-28T21:46:49.477Z,16.83
2022-11-28T21:49:17.334Z,14.43
2022-11-28T21:51:45.449Z,12.60
2022-11-28T21:54:13.492Z,18.03
2022-11-28T21:56:41.994Z,18.20
2022-11-28T21:59:10.344Z,19.97
2022-11-28T22:01:38.392Z,17.93
2022-11-28T22:04:08.235Z,19.23
2022-11-28T22:06:36.453Z,14.57
2022-11-28T22:09:09.474Z,13.77
2022-11-28T22:11:39.058Z,15.70
2022-11-28T22:14:07.059Z,18.00
2022-11-28T22:16:35.076Z,17.90
2022-11-28T22:19:03.103Z,17.20
2022-11-28T22:24:20.931Z,16.20
2022-11-28T22:26:48.836Z,20.50
2022-11-28T22:29:16.933Z,23.00
2022-11-28T22:31:44.886Z,20.00
2022-11-28T22:34:12.954Z,17.87
2022-11-28T22:36:42.444Z,17.35
2022-11-28T22:39:11.987Z,16.43
2022-11-28T22:41:39.894Z,21.57
2022-11-28T22:44:07.939Z,17.60
2022-11-28T22:46:35.999Z,20.27
2022-11-28T22:49:04.777Z,18.07
2022-11-28T22:51:32.957Z,18.47
2022-11-28T22:54:03.254Z,23.37
2022-11-28T22:56:33.795Z,20.60
2022-11-28T22:59:05.018Z,15.90
